createdAt,value
2019-04-06T00:00:33.449Z,43.7
2019-04-06T00:01:23.548Z,43.6
2019-04-06T00:02:12.808Z,43.6
2019-04-06T00:03:02.784Z,43.6
2019-04-06T00:03:56.028Z,43.6
2019-04-06T00:04:43.497Z,43.6
2019-04-06T00:05:33.229Z,43.6
2019-04-06T00:06:23.648Z,43.6
2019-04-06T00:07:13.365Z,43.6
2019-04-06T00:08:03.984Z,43.6
2019-04-06T00:08:53.274Z,43.6
2019-04-06T00:09:43.866Z,43.6
2019-04-06T00:10:33.627Z,43.6
2019-04-06T00:11:24.261Z,43.6
2019-04-06T00:12:13.780Z,43.6
2019-04-06T00:13:04.128Z,43.6
2019-04-06T00:13:54.155Z,43.6
2019-04-06T00:14:43.687Z,43.6
2019-04-06T00:15:34.572Z,43.6
2019-04-06T00:16:24.333Z,43.6
2019-04-06T00:17:14.085Z,43.6
2019-04-06T00:18:03.593Z,43.6
2019-04-06T00:18:54.763Z,43.6
2019-04-06T00:19:44.543Z,43.5
2019-04-06T00:20:34.603Z,43.5
2019-04-06T00:21:24.949Z,43.5
2019-04-06T00:22:15.007Z,43.5
2019-04-06T00:23:04.824Z,43.5
2019-04-06T00:23:54.095Z,43.5
2019-04-06T00:24:44.927Z,43.5
2019-04-06T00:25:46.732Z,43.5
2019-04-06T00:26:24.807Z,43.5
2019-04-06T00:27:15.357Z,43.5
2019-04-06T00:28:05.155Z,43.4
2019-04-06T00:28:54.955Z,43.5
2019-04-06T00:29:45.267Z,43.4
2019-04-06T00:30:35.377Z,43.4
2019-04-06T00:31:24.889Z,43.4
2019-04-06T00:32:15.737Z,43.4
2019-04-06T00:33:05.534Z,43.4
2019-04-06T00:33:55.892Z,43.4
2019-04-06T00:34:45.737Z,43.4
2019-04-06T00:35:36.048Z,43.4
2019-04-06T00:36:25.786Z,43.4
2019-04-06T00:37:15.802Z,43.4
2019-04-06T00:38:05.914Z,43.4
2019-04-06T00:38:55.795Z,43.4
2019-04-06T00:39:45.746Z,43.4
2019-04-06T00:41:26.186Z,43.4
2019-04-06T00:42:16.244Z,43.4
2019-04-06T00:43:06.504Z,43.4
2019-04-06T00:43:56.613Z,43.4
2019-04-06T00:44:46.078Z,43.4
2019-04-06T00:45:36.514Z,43.4
2019-04-06T00:46:26.506Z,43.4
2019-04-06T00:47:16.256Z,43.4
2019-04-06T00:48:07.128Z,43.4
2019-04-06T00:48:56.628Z,43.4
2019-04-06T00:49:46.521Z,43.3
2019-04-06T00:50:36.521Z,43.3
2019-04-06T00:51:26.874Z,43.3
2019-04-06T00:52:16.932Z,43.3
2019-04-06T00:53:07.055Z,43.3
2019-04-06T00:53:57.468Z,43.3
2019-04-06T00:54:47.413Z,43.3
2019-04-06T00:55:36.903Z,43.3
2019-04-06T00:56:26.958Z,43.3
2019-04-06T00:57:16.985Z,43.3
2019-04-06T00:58:07.620Z,43.3
2019-04-06T00:58:57.503Z,43.3
2019-04-06T00:59:47.433Z,43.3
2019-04-06T01:00:37.025Z,43.3
2019-04-06T01:01:27.307Z,43.3
2019-04-06T01:02:17.968Z,43.3
2019-04-06T01:03:07.758Z,43.3
2019-04-06T01:03:57.452Z,43.3
2019-04-06T01:04:47.967Z,43.3
2019-04-06T01:05:37.702Z,43.3
2019-04-06T01:06:28.295Z,43.3
2019-04-06T01:07:18.252Z,43.2
2019-04-06T01:08:08.030Z,43.2
2019-04-06T01:08:58.131Z,43.2
2019-04-06T01:09:48.222Z,43.2
2019-04-06T01:10:38.506Z,43.2
2019-04-06T01:11:28.292Z,43.2
2019-04-06T01:13:08.737Z,43.2
2019-04-06T01:13:58.449Z,43.2
2019-04-06T01:14:48.505Z,43.2
2019-04-06T01:15:38.922Z,43.1
2019-04-06T01:16:28.702Z,43.2
2019-04-06T01:17:18.724Z,43.2
2019-04-06T01:18:08.592Z,43.1
2019-04-06T01:18:58.546Z,43.1
2019-04-06T01:19:48.885Z,43.1
2019-04-06T01:20:39.404Z,43.1
2019-04-06T01:21:29.432Z,43.1
2019-04-06T01:22:19.185Z,43.1
2019-04-06T01:23:09.258Z,43.1
2019-04-06T01:23:58.722Z,43.1
2019-04-06T01:24:49.324Z,43.1
2019-04-06T01:25:39.656Z,43.1
2019-04-06T01:26:29.729Z,43.1
2019-04-06T01:27:19.891Z,43.1
2019-04-06T01:28:09.436Z,43.1
2019-04-06T01:28:59.546Z,43.1
2019-04-06T01:29:48.887Z,43.1
2019-04-06T01:30:38.578Z,43.1
2019-04-06T01:31:30.227Z,43.1
2019-04-06T01:32:19.530Z,43.1
2019-04-06T01:33:10.008Z,43.1
2019-04-06T01:34:02.590Z,43.1
2019-04-06T01:34:50.136Z,43.1
2019-04-06T01:35:40.313Z,43.1
2019-04-06T01:36:30.028Z,43.1
2019-04-06T01:37:20.100Z,43
2019-04-06T01:38:10.623Z,43
2019-04-06T01:39:00.542Z,43
2019-04-06T01:39:50.709Z,43
2019-04-06T01:40:39.843Z,43
2019-04-06T01:41:30.691Z,43
2019-04-06T01:42:20.904Z,43
2019-04-06T01:43:10.905Z,43
2019-04-06T01:44:00.845Z,43
2019-04-06T01:44:50.778Z,42.9
2019-04-06T01:45:40.197Z,43
2019-04-06T01:46:30.243Z,43
2019-04-06T01:47:20.659Z,42.9
2019-04-06T01:48:10.635Z,42.9
2019-04-06T01:49:00.944Z,42.9
2019-04-06T01:49:50.571Z,42.9
2019-04-06T01:50:40.019Z,42.9
2019-04-06T01:51:31.400Z,42.9
2019-04-06T01:52:21.540Z,42.9
2019-04-06T01:53:11.285Z,42.9
2019-04-06T01:54:01.096Z,42.9
2019-04-06T01:54:51.592Z,42.9
2019-04-06T01:55:41.473Z,42.9
2019-04-06T01:56:31.700Z,42.9
2019-04-06T01:57:22.079Z,42.9
2019-04-06T01:58:10.857Z,42.9
2019-04-06T01:59:02.082Z,42.9
2019-04-06T01:59:51.525Z,42.9
2019-04-06T02:00:41.058Z,42.9
2019-04-06T02:01:32.154Z,42.9
2019-04-06T02:02:22.012Z,42.9
2019-04-06T02:03:11.245Z,42.9
2019-04-06T02:04:02.430Z,42.9
2019-04-06T02:04:52.129Z,42.9
2019-04-06T02:05:41.899Z,42.9
2019-04-06T02:06:32.682Z,42.9
2019-04-06T02:07:22.595Z,42.8
2019-04-06T02:08:12.232Z,42.8
2019-04-06T02:09:02.539Z,42.9
2019-04-06T02:09:52.930Z,42.8
2019-04-06T02:10:42.949Z,42.8
2019-04-06T02:11:32.459Z,42.8
2019-04-06T02:12:22.428Z,42.8
2019-04-06T02:13:13.046Z,42.8
2019-04-06T02:14:03.261Z,42.8
2019-04-06T02:14:52.943Z,42.8
2019-04-06T02:15:43.196Z,42.8
2019-04-06T02:16:33.177Z,42.8
2019-04-06T02:17:23.568Z,42.8
2019-04-06T02:18:12.978Z,42.8
2019-04-06T02:19:03.544Z,42.8
2019-04-06T02:19:53.488Z,42.8
2019-04-06T02:20:58.235Z,42.8
2019-04-06T02:21:33.476Z,42.8
2019-04-06T02:22:23.151Z,42.8
2019-04-06T02:23:13.573Z,42.8
2019-04-06T02:24:03.511Z,42.8
2019-04-06T02:24:53.392Z,42.8
2019-04-06T02:25:43.620Z,42.8
2019-04-06T02:26:36.098Z,42.8
2019-04-06T02:27:23.824Z,42.8
2019-04-06T02:28:14.179Z,42.7
2019-04-06T02:29:04.483Z,42.7
2019-04-06T02:29:54.299Z,42.7
2019-04-06T02:30:44.782Z,42.7
2019-04-06T02:31:33.918Z,42.7
2019-04-06T02:32:25.102Z,42.7
2019-04-06T02:33:18.503Z,42.7
2019-04-06T02:34:04.258Z,42.7
2019-04-06T02:34:54.798Z,42.7
2019-04-06T02:35:44.830Z,42.7
2019-04-06T02:36:35.090Z,42.6
2019-04-06T02:37:24.992Z,42.6
2019-04-06T02:38:14.318Z,42.6
2019-04-06T02:39:04.985Z,42.6
2019-04-06T02:39:55.176Z,42.6
2019-04-06T02:40:45.598Z,42.6
2019-04-06T02:41:34.500Z,42.6
2019-04-06T02:42:25.573Z,42.6
2019-04-06T02:43:15.746Z,42.6
2019-04-06T02:44:05.448Z,42.6
2019-04-06T02:44:55.440Z,42.6
2019-04-06T02:45:45.193Z,42.6
2019-04-06T02:46:36.083Z,42.6
2019-04-06T02:47:25.752Z,42.6
2019-04-06T02:48:15.990Z,42.6
2019-04-06T02:49:05.833Z,42.6
2019-04-06T02:49:55.853Z,42.6
2019-04-06T02:50:45.686Z,42.6
2019-04-06T02:51:36.090Z,42.6
2019-04-06T02:52:26.320Z,42.6
2019-04-06T02:53:15.754Z,42.6
2019-04-06T02:54:06.022Z,42.6
2019-04-06T02:54:55.764Z,42.5
2019-04-06T02:55:46.148Z,42.6
2019-04-06T02:56:52.315Z,42.6
2019-04-06T02:57:26.084Z,42.5
2019-04-06T02:58:16.581Z,42.5
2019-04-06T02:59:06.060Z,42.5
2019-04-06T02:59:56.448Z,42.5
2019-04-06T03:00:46.554Z,42.5
2019-04-06T03:01:36.250Z,42.5
2019-04-06T03:02:27.026Z,42.5
2019-04-06T03:03:16.967Z,42.5
2019-04-06T03:04:06.782Z,42.5
2019-04-06T03:07:26.640Z,42.4
2019-04-06T03:08:02.220Z,42.5
2019-04-06T03:08:52.109Z,42.4
2019-04-06T03:09:42.528Z,42.4
2019-04-06T03:10:32.801Z,42.4
2019-04-06T03:11:23.109Z,42.4
2019-04-06T03:12:12.809Z,42.4
2019-04-06T03:13:03.025Z,42.4
2019-04-06T03:13:53.509Z,42.4
2019-04-06T03:14:46.611Z,42.4
2019-04-06T03:15:32.718Z,42.4
2019-04-06T03:16:22.972Z,42.4
2019-04-06T03:17:12.752Z,42.4
2019-04-06T03:18:03.461Z,42.4
2019-04-06T03:18:53.726Z,42.4
2019-04-06T03:19:43.918Z,42.4
2019-04-06T03:20:33.558Z,42.4
2019-04-06T03:21:23.191Z,42.4
2019-04-06T03:22:13.303Z,42.4
2019-04-06T03:23:03.147Z,42.4
2019-04-06T03:23:57.633Z,42.4
2019-04-06T03:24:43.678Z,42.4
2019-04-06T03:25:33.876Z,42.4
2019-04-06T03:26:23.750Z,42.4
2019-04-06T03:27:13.581Z,42.4
2019-04-06T03:28:03.545Z,42.3
2019-04-06T03:28:54.110Z,42.3
2019-04-06T03:30:01.704Z,42.3
2019-04-06T03:30:35.337Z,42.3
2019-04-06T03:31:33.542Z,42.3
2019-04-06T03:32:14.211Z,42.3
2019-04-06T03:33:04.714Z,42.3
2019-04-06T03:33:55.211Z,42.3
2019-04-06T03:34:44.790Z,42.3
2019-04-06T03:35:34.563Z,42.3
2019-04-06T03:36:24.427Z,42.3
2019-04-06T03:37:14.486Z,42.3
2019-04-06T03:38:05.066Z,42.3
2019-04-06T03:38:54.357Z,42.3
2019-04-06T03:39:44.450Z,42.3
2019-04-06T03:40:34.822Z,42.3
2019-04-06T03:41:24.763Z,42.3
2019-04-06T03:42:16.071Z,42.3
2019-04-06T03:43:05.007Z,42.3
2019-04-06T03:43:55.504Z,42.3
2019-04-06T03:44:44.279Z,42.3
2019-04-06T03:45:35.096Z,42.3
2019-04-06T03:46:25.173Z,42.3
2019-04-06T03:47:15.631Z,42.3
2019-04-06T03:48:05.317Z,42.2
2019-04-06T03:48:54.606Z,42.2
2019-04-06T03:49:45.026Z,42.3
2019-04-06T03:50:35.111Z,42.3
2019-04-06T03:51:25.934Z,42.2
2019-04-06T03:52:15.702Z,42.2
2019-04-06T03:53:05.353Z,42.2
2019-04-06T03:53:55.683Z,42.2
2019-04-06T03:54:45.502Z,42.2
2019-04-06T03:55:35.704Z,42.2
2019-04-06T03:56:26.043Z,42.2
2019-04-06T03:57:21.793Z,42.2
2019-04-06T03:58:06.266Z,42.2
2019-04-06T03:58:57.553Z,42.1
2019-04-06T03:59:46.501Z,42.2
2019-04-06T04:00:37.060Z,42.1
2019-04-06T04:01:26.443Z,42.1
2019-04-06T04:02:16.416Z,42.1
2019-04-06T04:03:06.403Z,42.1
2019-04-06T04:03:56.252Z,42.1
2019-04-06T04:04:46.581Z,42.1
2019-04-06T04:05:37.113Z,42.1
2019-04-06T04:06:26.583Z,42.1
2019-04-06T04:07:17.217Z,42.1
2019-04-06T04:08:06.086Z,42.1
2019-04-06T04:08:56.484Z,42.1
2019-04-06T04:09:47.393Z,42.1
2019-04-06T04:10:37.071Z,42.1
2019-04-06T04:11:27.652Z,42.1
2019-04-06T04:12:17.119Z,42.1
2019-04-06T04:13:06.710Z,42.1
2019-04-06T04:13:57.189Z,42.1
2019-04-06T04:14:46.618Z,42.1
2019-04-06T04:15:37.147Z,42.1
2019-04-06T04:16:27.656Z,42.1
2019-04-06T04:17:17.519Z,42.1
2019-04-06T04:18:08.019Z,42.1
2019-04-06T04:18:57.192Z,42
2019-04-06T04:19:47.055Z,42.1
2019-04-06T04:20:37.546Z,42
2019-04-06T04:21:27.615Z,42
2019-04-06T04:22:18.116Z,42
2019-04-06T04:23:08.093Z,42
2019-04-06T04:23:57.928Z,42
2019-04-06T04:24:47.748Z,42
2019-04-06T04:25:38.316Z,42
2019-04-06T04:26:28.221Z,42
2019-04-06T04:27:35.404Z,42
2019-04-06T04:28:08.529Z,42
2019-04-06T04:28:59.084Z,42
2019-04-06T04:29:48.569Z,42
2019-04-06T04:30:39.517Z,41.9
2019-04-06T04:31:28.606Z,42
2019-04-06T04:32:18.843Z,41.9
2019-04-06T04:33:08.093Z,41.9
2019-04-06T04:33:58.509Z,41.9
2019-04-06T04:34:48.453Z,41.9
2019-04-06T04:35:38.512Z,41.9
2019-04-06T04:36:29.521Z,41.9
2019-04-06T04:37:19.241Z,41.9
2019-04-06T04:38:09.309Z,41.9
2019-04-06T04:38:58.526Z,41.9
2019-04-06T04:39:49.494Z,41.9
2019-04-06T04:40:39.489Z,41.9
2019-04-06T04:41:29.001Z,41.9
2019-04-06T04:42:19.616Z,41.9
2019-04-06T04:43:09.012Z,41.9
2019-04-06T04:44:00.194Z,41.9
2019-04-06T04:44:49.970Z,41.9
2019-04-06T04:45:39.499Z,41.9
2019-04-06T04:46:30.005Z,41.9
2019-04-06T04:47:19.413Z,41.9
2019-04-06T04:48:09.388Z,41.9
2019-04-06T04:48:59.794Z,41.9
2019-04-06T04:49:50.284Z,41.9
2019-04-06T04:50:39.421Z,41.9
2019-04-06T04:51:29.370Z,41.9
2019-04-06T04:52:19.812Z,41.9
2019-04-06T04:53:09.616Z,41.8
2019-04-06T04:54:00.222Z,41.8
2019-04-06T04:54:49.602Z,41.8
2019-04-06T04:55:40.392Z,41.8
2019-04-06T04:56:30.085Z,41.8
2019-04-06T04:57:20.887Z,41.8
2019-04-06T04:58:10.303Z,41.8
2019-04-06T04:59:00.315Z,41.8
2019-04-06T04:59:50.293Z,41.8
2019-04-06T05:00:40.804Z,41.8
2019-04-06T05:01:31.094Z,41.8
2019-04-06T05:02:20.728Z,41.8
2019-04-06T05:03:11.235Z,41.8
2019-04-06T05:04:00.215Z,41.8
2019-04-06T05:04:51.314Z,41.8
2019-04-06T05:05:41.142Z,41.8
2019-04-06T05:06:31.105Z,41.8
2019-04-06T05:07:20.683Z,41.8
2019-04-06T05:08:11.019Z,41.8
2019-04-06T05:09:01.657Z,41.8
2019-04-06T05:09:51.217Z,41.7
2019-04-06T05:10:41.344Z,41.8
2019-04-06T05:11:31.286Z,41.8
2019-04-06T05:12:21.249Z,41.7
2019-04-06T05:13:11.659Z,41.7
2019-04-06T05:14:01.238Z,41.8
2019-04-06T05:14:52.142Z,41.7
2019-04-06T05:15:41.203Z,41.7
2019-04-06T05:16:32.086Z,41.7
2019-04-06T05:17:21.563Z,41.7
2019-04-06T05:18:11.363Z,41.7
2019-04-06T05:19:02.077Z,41.7
2019-04-06T05:19:51.882Z,41.7
2019-04-06T05:20:41.411Z,41.6
2019-04-06T05:21:31.846Z,41.7
2019-04-06T05:22:22.131Z,41.7
2019-04-06T05:23:12.042Z,41.6
2019-04-06T05:24:01.551Z,41.6
2019-04-06T05:24:52.460Z,41.6
2019-04-06T05:25:41.927Z,41.6
2019-04-06T05:26:42.921Z,41.6
2019-04-06T05:27:22.225Z,41.6
2019-04-06T05:28:12.026Z,41.6
2019-04-06T05:29:03.071Z,41.6
2019-04-06T05:29:52.173Z,41.6
2019-04-06T05:30:42.204Z,41.6
2019-04-06T06:05:15.786Z,41.4
2019-04-06T06:06:02.559Z,41.3
2019-04-06T06:06:52.481Z,41.4
2019-04-06T06:07:42.649Z,41.4
2019-04-06T06:08:35.308Z,41.4
2019-04-06T06:09:22.456Z,41.3
2019-04-06T06:10:11.635Z,41.3
2019-04-06T06:11:02.526Z,41.3
2019-04-06T06:11:51.573Z,41.3
2019-04-06T06:12:42.748Z,41.3
2019-04-06T06:13:33.333Z,41.3
2019-04-06T06:14:22.977Z,41.3
2019-04-06T06:15:12.963Z,41.3
2019-04-06T06:16:02.776Z,41.3
2019-04-06T06:16:53.380Z,41.3
2019-04-06T06:17:42.615Z,41.3
2019-04-06T06:18:32.830Z,41.3
2019-04-06T06:19:22.884Z,41.3
2019-04-06T06:20:13.140Z,41.3
2019-04-06T06:21:03.424Z,41.3
2019-04-06T06:21:53.875Z,41.3
2019-04-06T06:22:43.797Z,41.3
2019-04-06T06:23:33.962Z,41.3
2019-04-06T06:24:23.742Z,41.3
2019-04-06T06:25:14.083Z,41.3
2019-04-06T06:26:04.568Z,41.3
2019-04-06T06:26:52.864Z,41.3
2019-04-06T06:27:44.247Z,41.3
2019-04-06T06:28:34.335Z,41.2
2019-04-06T06:29:23.644Z,41.2
2019-04-06T06:30:14.380Z,41.2
2019-04-06T06:31:04.381Z,41.2
2019-04-06T06:31:54.282Z,41.2
2019-04-06T06:32:44.655Z,41.2
2019-04-06T06:33:34.401Z,41.2
2019-04-06T06:34:24.387Z,41.2
2019-04-06T06:35:14.718Z,41.2
2019-04-06T06:36:03.864Z,41.2
2019-04-06T06:36:54.666Z,41.2
2019-04-06T06:37:44.840Z,41.2
2019-04-06T06:38:35.433Z,41.1
2019-04-06T06:39:24.897Z,41.1
2019-04-06T06:40:14.303Z,41.1
2019-04-06T06:41:04.043Z,41.1
2019-04-06T06:41:55.167Z,41.1
2019-04-06T06:42:45.047Z,41.1
2019-04-06T06:43:34.642Z,41.1
2019-04-06T06:44:25.549Z,41.1
2019-04-06T06:45:14.356Z,41.1
2019-04-06T06:46:05.558Z,41.1
2019-04-06T06:46:54.733Z,41.1
2019-04-06T06:47:44.785Z,41.1
2019-04-06T06:48:35.522Z,41.1
2019-04-06T06:49:24.923Z,41.1
2019-04-06T06:50:15.979Z,41.1
2019-04-06T06:51:05.460Z,41.1
2019-04-06T06:51:55.444Z,41.1
2019-04-06T06:52:45.651Z,41.1
2019-04-06T06:53:35.623Z,41.1
2019-04-06T06:54:25.733Z,41.1
2019-04-06T06:55:15.754Z,41
2019-04-06T06:56:05.156Z,41.1
2019-04-06T06:56:55.529Z,41
2019-04-06T06:57:45.772Z,41.1
2019-04-06T06:58:35.332Z,41
2019-04-06T06:59:26.145Z,41
2019-04-06T07:00:15.975Z,41
2019-04-06T07:01:08.072Z,41
2019-04-06T07:01:55.159Z,41
2019-04-06T07:02:45.957Z,41
2019-04-06T07:05:11.914Z,40.9
2019-04-06T07:06:02.206Z,40.9
2019-04-06T07:06:52.616Z,41
2019-04-06T07:07:42.018Z,40.9
2019-04-06T07:08:32.138Z,40.9
2019-04-06T07:09:22.813Z,40.9
2019-04-06T07:10:13.146Z,40.9
2019-04-06T07:11:03.161Z,40.9
2019-04-06T07:11:52.285Z,40.9
2019-04-06T07:12:42.861Z,40.9
2019-04-06T07:13:33.095Z,40.9
2019-04-06T07:14:22.812Z,40.9
2019-04-06T07:15:13.154Z,40.9
2019-04-06T07:16:02.643Z,40.9
2019-04-06T07:16:53.412Z,40.9
2019-04-06T07:17:42.809Z,40.9
2019-04-06T07:18:33.342Z,40.9
2019-04-06T07:19:23.335Z,40.9
2019-04-06T07:20:13.551Z,40.8
2019-04-06T07:21:03.547Z,40.8
2019-04-06T07:21:53.499Z,40.8
2019-04-06T07:22:43.275Z,40.8
2019-04-06T07:23:33.518Z,40.8
2019-04-06T07:24:23.387Z,40.8
2019-04-06T07:25:13.122Z,40.8
2019-04-06T07:26:03.614Z,40.8
2019-04-06T07:26:53.151Z,40.8
2019-04-06T07:27:43.500Z,40.8
2019-04-06T07:28:44.112Z,40.8
2019-04-06T07:29:23.620Z,40.8
2019-04-06T07:30:13.950Z,40.8
2019-04-06T07:31:03.868Z,40.8
2019-04-06T07:31:53.565Z,40.8
2019-04-06T07:32:44.338Z,40.8
2019-04-06T07:33:34.230Z,40.8
2019-04-06T07:34:24.433Z,40.8
2019-04-06T07:35:13.726Z,40.7
2019-04-06T07:36:04.264Z,40.8
2019-04-06T07:36:54.932Z,40.7
2019-04-06T07:37:44.559Z,40.7
2019-04-06T07:38:34.309Z,40.7
2019-04-06T07:39:24.650Z,40.7
2019-04-06T07:40:14.413Z,40.7
2019-04-06T07:41:05.094Z,40.7
2019-04-06T07:41:55.102Z,40.7
2019-04-06T07:42:44.952Z,40.7
2019-04-06T07:43:34.751Z,40.7
2019-04-06T07:44:25.446Z,40.6
2019-04-06T07:45:14.906Z,40.7
2019-04-06T07:46:05.068Z,40.7
2019-04-06T07:46:54.411Z,40.6
2019-04-06T07:47:45.104Z,40.6
2019-04-06T07:48:35.831Z,40.6
2019-04-06T07:49:25.606Z,40.6
2019-04-06T07:50:15.156Z,40.6
2019-04-06T07:51:05.311Z,40.6
2019-04-06T07:51:55.336Z,40.6
2019-04-06T07:52:45.333Z,40.6
2019-04-06T07:53:34.962Z,40.6
2019-04-06T07:54:25.258Z,40.6
2019-04-06T07:55:14.993Z,40.6
2019-04-06T07:56:05.235Z,40.6
2019-04-06T07:56:55.554Z,40.6
2019-04-06T07:57:45.638Z,40.6
2019-04-06T07:58:35.842Z,40.6
2019-04-06T07:59:25.596Z,40.6
2019-04-06T08:00:16.090Z,40.6
2019-04-06T08:01:06.255Z,40.6
2019-04-06T08:01:55.898Z,40.6
2019-04-06T08:02:45.417Z,40.6
2019-04-06T08:03:36.552Z,40.6
2019-04-06T08:04:25.841Z,40.6
2019-04-06T08:05:15.910Z,40.5
2019-04-06T08:06:05.877Z,40.6
2019-04-06T08:06:57.319Z,40.5
2019-04-06T08:07:46.650Z,40.5
2019-04-06T08:08:36.073Z,40.5
2019-04-06T08:09:26.944Z,40.5
2019-04-06T08:10:16.915Z,40.5
2019-04-06T08:11:06.959Z,40.5
2019-04-06T08:11:57.242Z,40.5
2019-04-06T08:12:47.187Z,40.5
2019-04-06T08:13:37.581Z,40.5
2019-04-06T08:14:26.997Z,40.5
2019-04-06T08:15:16.940Z,40.5
2019-04-06T08:16:08.070Z,40.4
2019-04-06T08:16:56.933Z,40.5
2019-04-06T08:17:46.817Z,40.4
2019-04-06T08:18:37.690Z,40.4
2019-04-06T08:19:27.017Z,40.4
2019-04-06T08:20:17.622Z,40.4
2019-04-06T08:21:07.596Z,40.4
2019-04-06T08:21:57.374Z,40.4
2019-04-06T08:22:48.177Z,40.4
2019-04-06T08:23:37.214Z,40.4
2019-04-06T08:24:28.763Z,40.4
2019-04-06T08:25:17.542Z,40.4
2019-04-06T08:26:08.439Z,40.4
2019-04-06T08:26:58.778Z,40.4
2019-04-06T08:27:48.122Z,40.4
2019-04-06T08:28:38.171Z,40.4
2019-04-06T08:29:27.966Z,40.4
2019-04-06T08:30:18.129Z,40.3
2019-04-06T08:31:08.581Z,40.3
2019-04-06T08:31:58.264Z,40.3
2019-04-06T08:32:48.634Z,40.3
2019-04-06T08:33:37.731Z,40.3
2019-04-06T08:34:28.457Z,40.3
2019-04-06T08:35:31.117Z,40.4
2019-04-06T08:36:08.899Z,40.4
2019-04-06T08:36:58.708Z,40.5
2019-04-06T08:37:48.761Z,40.7
2019-04-06T08:38:38.361Z,40.8
2019-04-06T08:39:30.709Z,40.8
2019-04-06T08:40:18.744Z,41
2019-04-06T08:41:09.083Z,41.2
2019-04-06T08:41:59.203Z,41.3
2019-04-06T08:42:48.895Z,41.4
2019-04-06T08:43:38.408Z,41.5
2019-04-06T08:44:29.493Z,41.6
2019-04-06T08:45:19.683Z,41.7
2019-04-06T08:46:09.183Z,41.8
2019-04-06T08:46:59.683Z,41.8
2019-04-06T08:47:49.590Z,41.9
2019-04-06T08:48:39.648Z,41.9
2019-04-06T08:49:29.931Z,41.9
2019-04-06T08:50:19.865Z,42
2019-04-06T08:51:09.836Z,42.1
2019-04-06T08:52:00.392Z,42.1
2019-04-06T08:52:50.485Z,42.2
2019-04-06T08:53:39.762Z,42.3
2019-04-06T08:54:30.285Z,42.3
2019-04-06T08:55:20.405Z,42.4
2019-04-06T08:56:10.355Z,42.4
2019-04-06T08:57:00.684Z,42.5
2019-04-06T08:57:50.642Z,42.6
2019-04-06T08:58:40.722Z,42.6
2019-04-06T08:59:30.864Z,42.7
2019-04-06T09:00:20.657Z,42.9
2019-04-06T09:01:10.715Z,42.9
2019-04-06T09:02:00.541Z,43
2019-04-06T09:02:50.837Z,43.2
2019-04-06T09:03:40.432Z,43.3
2019-04-06T09:04:30.832Z,43.4
2019-04-06T09:05:21.085Z,43.4
2019-04-06T09:06:10.832Z,43.6
2019-04-06T09:07:01.105Z,43.7
2019-04-06T09:07:51.014Z,43.8
2019-04-06T09:08:40.517Z,43.8
2019-04-06T09:09:31.587Z,43.9
2019-04-06T09:10:20.979Z,43.9
2019-04-06T09:11:10.551Z,44
2019-04-06T09:12:01.264Z,44.1
2019-04-06T09:12:51.522Z,44.2
2019-04-06T09:13:44.347Z,44.3
2019-04-06T09:14:31.055Z,44.3
2019-04-06T09:15:21.340Z,44.4
2019-04-06T09:16:11.506Z,44.5
2019-04-06T09:17:01.549Z,44.6
2019-04-06T09:17:51.732Z,44.6
2019-04-06T09:18:42.678Z,44.7
2019-04-06T09:19:32.417Z,44.8
2019-04-06T09:20:22.019Z,44.8
2019-04-06T09:21:12.110Z,44.8
2019-04-06T09:22:03.063Z,44.8
2019-04-06T09:22:52.609Z,44.9
2019-04-06T09:23:42.099Z,44.9
2019-04-06T09:24:32.946Z,44.9
2019-04-06T09:25:22.199Z,45
2019-04-06T09:26:12.446Z,45.1
2019-04-06T09:27:02.658Z,45.1
2019-04-06T09:27:52.858Z,45.1
2019-04-06T09:28:41.518Z,45.2
2019-04-06T09:29:31.288Z,45.3
2019-04-06T09:30:22.514Z,45.3
2019-04-06T09:31:12.428Z,45.4
2019-04-06T09:32:02.998Z,45.5
2019-04-06T09:32:53.061Z,45.5
2019-04-06T09:33:42.665Z,45.6
2019-04-06T09:34:36.316Z,45.7
2019-04-06T09:35:23.061Z,45.8
2019-04-06T09:36:13.128Z,45.9
2019-04-06T09:37:03.317Z,46
2019-04-06T09:37:53.307Z,46.1
2019-04-06T09:38:43.435Z,46.2
2019-04-06T09:39:34.048Z,46.3
2019-04-06T09:40:23.388Z,46.4
2019-04-06T09:41:13.817Z,46.5
2019-04-06T09:42:03.656Z,46.6
2019-04-06T09:42:53.907Z,46.8
2019-04-06T09:43:43.510Z,46.8
2019-04-06T09:44:34.164Z,46.9
2019-04-06T09:45:24.160Z,47
2019-04-06T09:46:13.557Z,47.1
2019-04-06T09:47:04.033Z,47.1
2019-04-06T09:47:53.908Z,47.3
2019-04-06T09:48:44.089Z,47.4
2019-04-06T09:49:34.450Z,47.5
2019-04-06T09:50:24.447Z,47.6
2019-04-06T09:51:13.722Z,47.8
2019-04-06T09:52:03.604Z,47.9
2019-04-06T09:52:54.422Z,48
2019-04-06T09:53:44.049Z,48.1
2019-04-06T09:54:34.494Z,48.2
2019-04-06T09:55:24.817Z,48.3
2019-04-06T09:56:14.240Z,48.4
2019-04-06T09:57:05.151Z,48.5
2019-04-06T09:57:54.930Z,48.6
2019-04-06T09:58:44.690Z,48.6
2019-04-06T09:59:42.245Z,48.8
2019-04-06T10:00:24.881Z,48.9
2019-04-06T10:01:14.187Z,48.9
2019-04-06T10:02:05.361Z,49
2019-04-06T10:02:54.956Z,49.1
2019-04-06T10:03:45.364Z,49.1
2019-04-06T10:06:15.596Z,49.3
2019-04-06T10:07:02.119Z,49.5
2019-04-06T10:07:52.339Z,49.6
2019-04-06T10:08:42.649Z,49.6
2019-04-06T10:09:32.453Z,49.7
2019-04-06T10:10:22.699Z,49.8
2019-04-06T10:11:12.611Z,49.8
2019-04-06T10:12:06.532Z,49.9
2019-04-06T10:12:52.828Z,49.9
2019-04-06T10:13:42.663Z,50
2019-04-06T10:14:33.184Z,49.9
2019-04-06T10:15:22.978Z,50.1
2019-04-06T10:16:13.790Z,50.1
2019-04-06T10:17:03.812Z,50.2
2019-04-06T10:17:53.133Z,50.3
2019-04-06T10:18:43.621Z,50.3
2019-04-06T10:19:33.300Z,50.4
2019-04-06T10:20:24.025Z,50.4
2019-04-06T10:21:13.460Z,50.4
2019-04-06T10:22:02.973Z,50.4
2019-04-06T10:22:53.001Z,50.4
2019-04-06T10:23:43.300Z,50.5
2019-04-06T10:24:33.962Z,50.5
2019-04-06T10:25:24.355Z,50.5
2019-04-06T10:26:13.643Z,50.5
2019-04-06T10:27:03.893Z,50.5
2019-04-06T10:27:54.168Z,50.5
2019-04-06T10:28:44.372Z,50.5
2019-04-06T10:29:34.078Z,50.5
2019-04-06T10:30:24.217Z,50.5
2019-04-06T10:31:13.828Z,50.5
2019-04-06T10:32:04.301Z,50.5
2019-04-06T10:32:54.411Z,50.5
2019-04-06T10:33:44.452Z,50.5
2019-04-06T10:34:34.067Z,50.5
2019-04-06T10:35:24.667Z,50.5
2019-04-06T10:36:14.039Z,50.5
2019-04-06T10:37:04.672Z,50.5
2019-04-06T10:37:54.589Z,50.5
2019-04-06T10:38:43.549Z,50.5
2019-04-06T10:39:34.554Z,50.5
2019-04-06T10:40:25.499Z,50.5
2019-04-06T10:41:15.422Z,50.5
2019-04-06T10:42:05.282Z,50.5
2019-04-06T10:42:54.767Z,50.5
2019-04-06T10:43:44.603Z,50.5
2019-04-06T10:44:34.859Z,50.5
2019-04-06T10:45:25.322Z,50.5
2019-04-06T10:46:14.857Z,50.4
2019-04-06T10:47:05.596Z,50.5
2019-04-06T10:47:55.778Z,50.5
2019-04-06T10:48:45.659Z,50.5
2019-04-06T10:49:34.886Z,50.4
2019-04-06T10:50:25.098Z,50.4
2019-04-06T10:51:15.096Z,50.4
2019-04-06T10:52:05.656Z,50.4
2019-04-06T10:52:55.121Z,50.4
2019-04-06T10:53:46.110Z,50.4
2019-04-06T10:54:35.527Z,50.4
2019-04-06T10:55:25.529Z,50.4
2019-04-06T10:56:15.526Z,50.5
2019-04-06T10:57:05.567Z,50.5
2019-04-06T10:57:55.968Z,50.6
2019-04-06T10:58:46.234Z,50.6
2019-04-06T10:59:36.563Z,50.6
2019-04-06T11:00:26.343Z,50.7
2019-04-06T11:01:16.628Z,50.7
2019-04-06T11:02:06.420Z,50.7
2019-04-06T11:02:56.408Z,50.8
2019-04-06T11:03:46.968Z,50.8
2019-04-06T11:04:37.135Z,50.9
2019-04-06T11:05:27.528Z,50.9
2019-04-06T11:06:16.641Z,50.9
2019-04-06T11:07:06.610Z,51.1
2019-04-06T11:07:56.910Z,51.1
2019-04-06T11:08:46.760Z,51.2
2019-04-06T11:09:37.705Z,51.3
2019-04-06T11:10:26.768Z,51.3
2019-04-06T11:11:23.297Z,51.3
2019-04-06T11:12:07.190Z,51.4
2019-04-06T11:12:57.467Z,51.4
2019-04-06T11:13:47.077Z,51.4
2019-04-06T11:14:37.058Z,51.6
2019-04-06T11:15:27.217Z,51.6
2019-04-06T11:16:18.266Z,51.6
2019-04-06T11:17:06.920Z,51.7
2019-04-06T11:17:58.103Z,51.8
2019-04-06T11:18:47.010Z,51.8
2019-04-06T11:19:37.524Z,51.9
2019-04-06T11:20:28.440Z,52
2019-04-06T11:21:18.122Z,52.1
2019-04-06T11:22:08.024Z,52.1
2019-04-06T11:22:58.384Z,52.2
2019-04-06T11:23:47.931Z,52.2
2019-04-06T11:24:37.574Z,52.3
2019-04-06T11:25:27.033Z,52.3
2019-04-06T11:27:08.198Z,52.4
2019-04-06T11:27:57.287Z,52.5
2019-04-06T11:28:47.729Z,52.5
2019-04-06T11:29:38.741Z,52.6
2019-04-06T11:30:28.426Z,52.6
2019-04-06T11:31:18.699Z,52.6
2019-04-06T11:32:09.337Z,52.6
2019-04-06T11:32:58.165Z,52.7
2019-04-06T11:33:47.704Z,52.7
2019-04-06T11:34:38.703Z,52.8
2019-04-06T11:36:18.688Z,52.9
2019-04-06T11:37:08.301Z,52.9
2019-04-06T11:37:58.838Z,53
2019-04-06T11:38:49.478Z,53
2019-04-06T11:39:38.601Z,53.1
2019-04-06T11:40:28.725Z,53.1
2019-04-06T11:41:19.897Z,53.1
2019-04-06T11:42:09.803Z,53.2
2019-04-06T11:42:59.188Z,53.3
2019-04-06T11:43:50.033Z,53.4
2019-04-06T11:44:39.247Z,53.4
2019-04-06T11:45:29.100Z,53.4
2019-04-06T11:46:20.155Z,53.4
2019-04-06T11:47:09.648Z,53.5
2019-04-06T11:47:59.167Z,53.6
2019-04-06T11:48:51.065Z,53.6
2019-04-06T11:49:39.948Z,53.7
2019-04-06T11:50:29.508Z,53.7
2019-04-06T11:51:19.117Z,53.8